Flushing, NY (11371)

1:51 PM EDT on March 27, 2015 (GMT -0400)
La Guardia | | Change Station
CLOSE
Current Station
Airport
Location: New York,
Elevation: 30 ft
Nearby Weather Stations

Elev 30 ft 40.78 °N, 73.88 °W | Updated 1 hour ago

Overcast
Overcast
44 °F
Feels Like 40 °F
N
7
Wind Variable Wind from NW

Today
High -- | Low -- °F
--% Chance of Precip.
Yesterday
High -- | Low -- °F
Precip. -- in
6:47 AM 7:14 PM
First Quarter, 54% visible
Pressure 29.73 in
Visibility 10.0 miles
Clouds Scattered Clouds 2200 ft
Mostly Cloudy 4000 ft
Overcast 14000 ft
Windchill 40 °F
Dew Point 34 °F
Humidity 68%
Rainfall 0.29 in
Snow Depth Not available.
UV 2 out of 12
Pollen 5.90 out of 12
Air Quality Not available.
Flu Activity Not available.
METAR KLGA 271651Z 32006KT 10SM SCT022 BKN040 OVC140 07/01 A2973 RMK AO2 SLP067 T00670011

More Conditions Fewer Conditions

Pressure 29.73 in
Visibility 10.0 miles
Clouds Scattered Clouds 2200 ft
Mostly Cloudy 4000 ft
Overcast 14000 ft
Windchill 40 °F
Dew Point 34 °F
Humidity 68%
Rainfall 0.29 in
Snow Depth Not available.
UV 2 out of 12
Pollen 5.90 out of 12
Air Quality Not available.
Flu Activity Not available.
METAR KLGA 271651Z 32006KT 10SM SCT022 BKN040 OVC140 07/01 A2973 RMK AO2 SLP067 T00670011

More Conditions Fewer Conditions

10-Day Weather Forecast

Almanac

Astronomy

Mar. 27, 2015 Rise Set
Actual Time
Civil Twilight
Nautical Twilight
Astronomical Twilight
Moon
Length of Visible Light
Length of Day
Tomorrow will be .
, % of the Moon is Illuminated

Today's Extremes

State Highs State Lows

Community

WunderPhotos

Upload Photos

1,808,772 photos uploaded!

WunderBlogs® & News

Nearby

Air Quality

  Air Quality AQ Index Pollutant
Not available.

Snow Depth

Station Depth Elevation

Earthquake Activity

City Distance Mag. Time & Date
Minimum magnitude displayed is 2.5.

Coastal Water Temperatures

Place Temperature

Stations

Nearby Weather Stations

Station Location Temp. Windchill Dew Point Humidity Wind Precip. Elev Updated Type